Time;durP1;ratioP1;P1;durP2;ratioP2;P2;SDS_P1;SDS_P2;PMS_P1;PMS_P2;Temp;Humidity;BMP_temperature;BMP_pressure;BME280_temperature;BME280_humidity;BME280_pressure;Samples;Min_cycle;Max_cycle;Signal;HPM_P1;HPM_P2
2024/01/02 00:02:06;;;;;;;;;;;;;;;16.78;48.45;100489.31;5072533;28;1107;-55
2024/01/02 00:04:32;;;;;;;;;;;;;;;18.29;47.08;100493.41;5076406;28;1116;-55
2024/01/02 00:06:57;;;;;;;;;;;;;;;17.30;48.50;100491.78;5078082;28;1123;-56
2024/01/02 00:09:23;;;;;;;;;;;;;;;16.86;47.85;100499.69;5060248;28;1144;-56
2024/01/02 00:11:48;;;;;;;;;;;;;;;16.64;46.98;100496.50;5051226;28;929;-55
2024/01/02 00:14:14;;;;;;;;;;;;;;;17.58;47.99;100490.19;5064542;28;1052;-55
2024/01/02 00:16:39;;;;;;;;;;;;;;;17.05;48.62;100508.13;5077894;28;1191;-56
2024/01/02 00:19:05;;;;;;;;;;;;;;;16.72;48.03;100499.47;5059824;28;1973;-56
2024/01/02 00:21:31;;;;;;;;;;;;;;;16.62;46.74;100498.69;5073901;28;1023;-56
2024/01/02 00:24:01;;;;;;;;;;;;;;;16.54;46.71;100500.91;5077329;28;996;-56
2024/01/02 00:26:27;;;;;;;;;;;;;;;17.36;48.00;100512.63;5077767;28;1863;-56
2024/01/02 00:28:52;;;;;;;;;;;;;;;16.66;48.37;100511.59;5063985;28;1099;-56
2024/01/02 00:31:19;;;;;;;;;;;;;;;16.46;47.29;100517.16;5066305;28;1181;-56
2024/01/02 00:33:44;;;;;;;;;;;;;;;17.15;48.01;100522.91;5071172;28;1080;-56
2024/01/02 00:36:10;;;;;;;;;;;;;;;17.59;47.84;100524.84;5070085;28;1194;-56
2024/01/02 00:38:36;;;;;;;;;;;;;;;16.85;48.14;100524.69;5059447;28;1983;-56
2024/01/02 00:41:02;;;;;;;;;;;;;;;17.86;47.87;100529.84;5066274;28;1087;-56
2024/01/02 00:43:28;;;;;;;;;;;;;;;17.27;48.49;100534.41;5053335;28;1056;-56
2024/01/02 00:45:53;;;;;;;;;;;;;;;16.83;47.85;100526.88;5057795;28;1020;-56
2024/01/02 00:48:19;;;;;;;;;;;;;;;16.66;47.06;100521.75;5075283;28;1056;-56
2024/01/02 00:50:44;;;;;;;;;;;;;;;17.03;47.74;100526.81;5056214;28;1208;-56
2024/01/02 00:53:10;;;;;;;;;;;;;;;17.38;48.35;100522.22;5072308;28;1158;-56
2024/01/02 00:55:36;;;;;;;;;;;;;;;16.88;47.96;100521.38;5067880;28;1067;-56
2024/01/02 00:58:03;;;;;;;;;;;;;;;16.56;47.48;100517.94;5072179;28;2369;-56
2024/01/02 01:00:29;;;;;;;;;;;;;;;16.43;46.69;100524.81;5065047;28;1081;-56
2024/01/02 01:02:54;;;;;;;;;;;;;;;17.69;47.72;100519.25;5076664;28;1011;-55
2024/01/02 01:05:20;;;;;;;;;;;;;;;17.22;48.30;100501.44;5077091;28;1059;-55
2024/01/02 01:07:45;;;;;;;;;;;;;;;16.75;47.98;100514.59;5063972;28;1131;-55
2024/01/02 01:10:11;;;;;;;;;;;;;;;16.60;47.04;100512.72;5049233;28;1211;-55
2024/01/02 01:12:37;;;;;;;;;;;;;;;17.15;47.92;100517.44;5075167;28;1619;-55
2024/01/02 01:15:03;;;;;;;;;;;;;;;17.01;48.44;100507.06;5067983;28;983;-55
2024/01/02 01:17:29;;;;;;;;;;;;;;;16.60;47.66;100507.22;5057179;28;1060;-55
2024/01/02 01:19:55;;;;;;;;;;;;;;;17.26;48.49;100502.50;5065168;28;2003;-55
2024/01/02 01:22:20;;;;;;;;;;;;;;;17.55;48.05;100499.84;5075232;28;930;-56
2024/01/02 01:24:46;;;;;;;;;;;;;;;16.90;48.09;100491.72;5073121;28;1035;-55
2024/01/02 01:27:11;;;;;;;;;;;;;;;16.65;47.51;100488.00;5057840;28;2402;-58
2024/01/02 01:29:37;;;;;;;;;;;;;;;16.51;46.66;100493.25;5076652;28;1118;-58
2024/01/02 01:32:02;;;;;;;;;;;;;;;16.43;46.21;100494.63;5075507;28;2075;-58
2024/01/02 01:34:28;;;;;;;;;;;;;;;17.68;47.82;100495.59;5077435;28;1116;-58
2024/01/02 01:36:54;;;;;;;;;;;;;;;16.76;48.36;100497.81;5077014;28;1000;-58
2024/01/02 01:39:20;;;;;;;;;;;;;;;16.58;47.52;100498.47;5048265;28;1976;-58
2024/01/02 01:41:46;;;;;;;;;;;;;;;17.71;47.91;100505.22;5056396;28;1111;-58
2024/01/02 01:44:11;;;;;;;;;;;;;;;17.05;48.66;100501.81;5076460;28;1019;-58
2024/01/02 01:46:37;;;;;;;;;;;;;;;16.71;47.83;100510.75;5077166;28;1109;-59
2024/01/02 01:49:03;;;;;;;;;;;;;;;17.98;47.25;100509.41;5076861;28;987;-58
2024/01/02 01:51:29;;;;;;;;;;;;;;;17.02;48.52;100516.13;5069959;28;1138;-58
2024/01/02 01:53:54;;;;;;;;;;;;;;;16.74;47.64;100519.22;5076854;28;1079;-58
2024/01/02 01:56:20;;;;;;;;;;;;;;;16.56;46.58;100511.63;5076259;28;1074;-58
2024/01/02 01:58:46;;;;;;;;;;;;;;;16.40;46.32;100511.66;5058485;28;1922;-58
2024/01/02 02:01:11;;;;;;;;;;;;;;;17.32;48.08;100515.13;5042189;28;1229;-58
2024/01/02 02:03:37;;;;;;;;;;;;;;;17.92;47.35;100525.97;5057995;28;1283;-58
2024/01/02 02:06:03;;;;;;;;;;;;;;;16.92;48.50;100514.25;5076184;28;1039;-58
2024/01/02 02:08:29;;;;;;;;;;;;;;;17.00;48.67;100521.91;5048340;28;1162;-58
2024/01/02 02:10:54;;;;;;;;;;;;;;;17.78;47.66;100519.44;5059682;28;1031;-58
2024/01/02 02:13:20;;;;;;;;;;;;;;;17.01;48.22;100525.47;5041778;28;2397;-59
2024/01/02 02:15:48;;;;;;;;;;;;;;;16.73;47.26;100516.78;5052242;28;1206;-56
2024/01/02 02:18:14;;;;;;;;;;;;;;;16.52;46.89;100527.00;5067490;28;1988;-56
2024/01/02 02:20:40;;;;;;;;;;;;;;;16.57;46.90;100535.22;5041470;28;1214;-56
2024/01/02 02:23:05;;;;;;;;;;;;;;;17.73;47.76;100536.81;5047834;28;1099;-56
2024/01/02 02:25:31;;;;;;;;;;;;;;;16.87;48.19;100545.28;5072704;28;1055;-56
2024/01/02 02:27:56;;;;;;;;;;;;;;;16.67;47.42;100534.38;5066126;28;871;-56
2024/01/02 02:30:22;;;;;;;;;;;;;;;17.13;48.25;100541.63;5071603;28;1032;-56
2024/01/02 02:32:48;;;;;;;;;;;;;;;17.32;48.27;100548.13;5076418;28;1112;-56
2024/01/02 02:35:13;;;;;;;;;;;;;;;16.85;47.76;100541.97;5062592;28;1167;-56
2024/01/02 02:37:39;;;;;;;;;;;;;;;16.57;46.94;100540.72;5066135;28;1111;-56
2024/01/02 02:40:05;;;;;;;;;;;;;;;16.38;46.73;100538.59;5063102;28;1987;-55
2024/01/02 02:42:30;;;;;;;;;;;;;;;16.72;47.51;100526.94;5075172;28;1003;-56
2024/01/02 02:44:57;;;;;;;;;;;;;;;17.35;48.16;100519.22;5072337;28;1114;-56
2024/01/02 02:47:23;;;;;;;;;;;;;;;16.64;48.33;100511.03;5055317;28;933;-56
2024/01/02 02:49:51;;;;;;;;;;;;;;;17.26;48.40;100510.75;5071458;28;1154;-56
2024/01/02 02:52:18;;;;;;;;;;;;;;;17.49;48.02;100508.41;5071879;28;926;-57
2024/01/02 02:54:43;;;;;;;;;;;;;;;16.81;48.11;100507.94;5061039;28;1111;-56
2024/01/02 02:57:09;;;;;;;;;;;;;;;16.66;47.15;100508.00;5064730;28;1110;-56
2024/01/02 02:59:34;;;;;;;;;;;;;;;16.48;46.47;100502.06;5055721;28;1913;-56
2024/01/02 03:02:00;;;;;;;;;;;;;;;16.28;46.24;100505.66;5075676;28;1139;-57
2024/01/02 03:04:26;;;;;;;;;;;;;;;17.59;47.72;100511.91;5065629;28;1163;-58
2024/01/02 03:06:51;;;;;;;;;;;;;;;17.23;48.40;100508.59;5075157;28;1091;-57
2024/01/02 03:09:17;;;;;;;;;;;;;;;16.79;47.88;100509.31;5071389;28;987;-57
2024/01/02 03:11:44;;;;;;;;;;;;;;;17.10;48.54;100510.84;5066612;28;1108;-57
2024/01/02 03:14:09;;;;;;;;;;;;;;;17.40;48.06;100503.53;5075523;28;988;-57
2024/01/02 03:16:35;;;;;;;;;;;;;;;16.77;48.24;100515.09;5063698;28;888;-57
2024/01/02 03:19:01;;;;;;;;;;;;;;;16.66;47.19;100508.84;5068077;28;1968;-57
2024/01/02 03:21:28;;;;;;;;;;;;;;;17.03;47.71;100515.84;5066645;28;1051;-57
2024/01/02 03:23:58;;;;;;;;;;;;;;;17.38;48.03;100521.41;5044430;28;1167;-57
2024/01/02 03:26:23;;;;;;;;;;;;;;;16.78;48.02;100519.50;5075406;28;1067;-56
2024/01/02 03:28:49;;;;;;;;;;;;;;;16.56;47.04;100517.94;5059289;28;1074;-57
2024/01/02 03:31:14;;;;;;;;;;;;;;;16.51;46.66;100522.59;5067263;28;1123;-56
2024/01/02 03:33:40;;;;;;;;;;;;;;;17.88;47.34;100521.28;5074546;28;1070;-56
2024/01/02 03:36:18;;;;;;;;;;;;;;;16.94;48.21;100517.53;5062841;28;1437;-56
2024/01/02 03:38:47;;;;;;;;;;;;;;;16.65;47.19;100520.94;5060887;28;1918;-56
2024/01/02 03:41:12;;;;;;;;;;;;;;;16.84;48.05;100529.34;5062320;28;894;-57
2024/01/02 03:43:39;;;;;;;;;;;;;;;17.50;47.92;100535.63;5074204;28;1046;-57
2024/01/02 03:46:04;;;;;;;;;;;;;;;16.72;48.34;100521.44;5066489;28;1072;-56
2024/01/02 03:48:30;;;;;;;;;;;;;;;17.68;47.80;100536.03;5061335;28;940;-56
2024/01/02 03:50:55;;;;;;;;;;;;;;;17.14;48.51;100537.75;5074240;28;1146;-56
2024/01/02 03:53:21;;;;;;;;;;;;;;;16.78;47.76;100546.97;5073783;28;878;-56
2024/01/02 03:55:46;;;;;;;;;;;;;;;16.57;46.87;100551.69;5068379;28;1119;-55
2024/01/02 03:58:12;;;;;;;;;;;;;;;16.34;46.92;100556.69;5056004;28;2475;-54
2024/01/02 04:00:39;;;;;;;;;;;;;;;17.58;47.55;100547.94;5064796;28;1956;-54
2024/01/02 04:03:05;;;;;;;;;;;;;;;16.80;48.12;100552.16;5068664;28;2070;-53
2024/01/02 04:05:31;;;;;;;;;;;;;;;16.53;47.51;100553.34;5057536;28;1810;-50
2024/01/02 04:07:57;;;;;;;;;;;;;;;17.49;47.88;100555.13;5070240;28;1974;-59
2024/01/02 04:10:22;;;;;;;;;;;;;;;17.03;48.22;100559.78;5058400;28;1949;-51
2024/01/02 04:12:48;;;;;;;;;;;;;;;16.59;48.04;100557.72;5058997;28;1847;-53
2024/01/02 04:15:13;;;;;;;;;;;;;;;16.41;47.16;100557.22;5055751;28;1077;-52
2024/01/02 04:17:39;;;;;;;;;;;;;;;17.75;47.36;100561.28;5073761;28;1036;-54
2024/01/02 04:20:05;;;;;;;;;;;;;;;17.22;48.31;100565.47;5074095;28;1973;-51
2024/01/02 04:22:30;;;;;;;;;;;;;;;16.80;48.07;100565.91;5069757;28;1370;-52
2024/01/02 04:24:56;;;;;;;;;;;;;;;16.63;47.48;100561.56;5054992;28;1114;-55
2024/01/02 04:27:21;;;;;;;;;;;;;;;16.43;46.56;100557.75;5067197;28;1379;-53
2024/01/02 04:29:47;;;;;;;;;;;;;;;16.85;47.74;100563.16;5073805;28;1414;-55
2024/01/02 04:32:14;;;;;;;;;;;;;;;17.92;47.22;100567.25;5076929;28;1406;-54
2024/01/02 04:34:39;;;;;;;;;;;;;;;16.95;48.34;100551.31;5064451;28;933;-54
2024/01/02 04:37:05;;;;;;;;;;;;;;;16.64;47.73;100551.41;5077827;28;999;-54
2024/01/02 04:39:30;;;;;;;;;;;;;;;17.62;47.96;100551.75;5078016;28;1975;-54
2024/01/02 04:41:56;;;;;;;;;;;;;;;17.09;48.32;100561.41;5071758;28;1769;-52
2024/01/02 04:44:21;;;;;;;;;;;;;;;16.62;48.17;100559.09;5058013;28;1070;-52
2024/01/02 04:46:47;;;;;;;;;;;;;;;16.91;48.39;100559.28;5075871;28;1016;-52
2024/01/02 04:49:14;;;;;;;;;;;;;;;17.68;47.81;100569.84;5058911;28;1364;-49
2024/01/02 04:51:39;;;;;;;;;;;;;;;16.85;48.20;100568.63;5075026;28;1552;-54
2024/01/02 04:54:05;;;;;;;;;;;;;;;16.56;47.48;100577.50;5077265;28;932;-54
2024/01/02 04:56:31;;;;;;;;;;;;;;;16.48;46.69;100578.91;5059509;28;995;-55
2024/01/02 04:58:56;;;;;;;;;;;;;;;17.77;47.77;100583.84;5077154;28;1977;-50
2024/01/02 05:01:22;;;;;;;;;;;;;;;17.33;48.11;100588.22;5077946;28;1046;-55
2024/01/02 05:03:47;;;;;;;;;;;;;;;16.75;47.94;100586.78;5075114;28;1154;-54
2024/01/02 05:06:13;;;;;;;;;;;;;;;16.59;47.31;100574.19;5063785;28;1118;-55
2024/01/02 05:08:38;;;;;;;;;;;;;;;16.39;46.61;100575.06;5073300;28;1084;-52
2024/01/02 05:11:04;;;;;;;;;;;;;;;16.92;47.66;100578.22;5063424;28;1043;-52
2024/01/02 05:13:29;;;;;;;;;;;;;;;17.68;47.73;100582.78;5069732;28;2460;-54
2024/01/02 05:15:55;;;;;;;;;;;;;;;16.84;48.56;100586.22;5072607;28;1047;-52
2024/01/02 05:18:20;;;;;;;;;;;;;;;16.57;48.30;100590.13;5065938;28;1973;-52
2024/01/02 05:20:47;;;;;;;;;;;;;;;18.09;47.29;100594.31;5070892;28;1246;-51
2024/01/02 05:23:13;;;;;;;;;;;;;;;17.29;48.61;100595.38;5069657;28;1071;-54
2024/01/02 05:25:38;;;;;;;;;;;;;;;17.27;48.99;100603.09;5077630;28;1099;-53
2024/01/02 05:28:04;;;;;;;;;;;;;;;16.89;49.47;100605.47;5067011;28;1203;-53
2024/01/02 05:30:30;;;;;;;;;;;;;;;16.68;50.28;100602.72;5064376;28;1174;-54
2024/01/02 05:32:55;;;;;;;;;;;;;;;16.42;50.72;100605.53;5077669;28;1115;-53
2024/01/02 05:35:21;;;;;;;;;;;;;;;16.23;50.92;100596.22;5064026;28;1170;-52
2024/01/02 05:37:47;;;;;;;;;;;;;;;16.13;51.26;100598.97;5077509;28;1183;-54
2024/01/02 05:40:12;;;;;;;;;;;;;;;15.98;51.26;100603.34;5074973;28;2008;-54
2024/01/02 05:42:38;;;;;;;;;;;;;;;15.84;51.44;100608.56;5071938;28;1214;-54
2024/01/02 05:45:03;;;;;;;;;;;;;;;15.82;51.54;100604.44;5077024;28;1051;-50
2024/01/02 05:47:29;;;;;;;;;;;;;;;15.73;51.59;100593.16;5076922;28;1019;-54
2024/01/02 05:49:55;;;;;;;;;;;;;;;16.85;49.19;100604.34;5076878;28;1145;-49
2024/01/02 05:52:20;;;;;;;;;;;;;;;17.24;47.94;100598.16;5074966;28;1110;-56
2024/01/02 05:54:46;;;;;;;;;;;;;;;16.40;49.83;100607.72;5066878;28;1337;-49
2024/01/02 05:57:11;;;;;;;;;;;;;;;16.10;50.74;100602.25;5076230;28;1019;-54
2024/01/02 05:59:37;;;;;;;;;;;;;;;15.89;51.02;100600.34;5076726;28;1971;-54
2024/01/02 06:02:03;;;;;;;;;;;;;;;15.71;51.53;100606.28;5077389;28;1028;-53
2024/01/02 06:04:28;;;;;;;;;;;;;;;15.56;52.01;100604.38;5073818;28;1282;-53
2024/01/02 06:06:54;;;;;;;;;;;;;;;16.18;50.59;100613.50;5066683;28;1180;-55
2024/01/02 06:09:19;;;;;;;;;;;;;;;17.54;47.18;100618.34;5076641;28;1068;-54
2024/01/02 06:11:45;;;;;;;;;;;;;;;16.67;48.84;100616.75;5077421;28;1044;-52
2024/01/02 06:14:11;;;;;;;;;;;;;;;16.17;50.41;100624.75;5075921;28;1168;-55
2024/01/02 06:16:37;;;;;;;;;;;;;;;15.90;50.81;100639.53;5056871;28;1424;-54
2024/01/02 06:19:04;;;;;;;;;;;;;;;15.64;51.66;100639.47;5076791;28;1974;-53
2024/01/02 06:21:29;;;;;;;;;;;;;;;16.48;49.56;100641.19;5074082;28;1199;-53
2024/01/02 06:23:55;;;;;;;;;;;;;;;17.68;46.66;100646.03;5050842;28;1234;-54
2024/01/02 06:26:20;;;;;;;;;;;;;;;16.62;49.13;100639.53;5077055;28;1254;-55
2024/01/02 06:28:46;;;;;;;;;;;;;;;16.18;50.19;100645.59;5071826;28;988;-55
2024/01/02 06:31:11;;;;;;;;;;;;;;;15.91;50.77;100638.44;5076290;28;1167;-53
2024/01/02 06:33:39;;;;;;;;;;;;;;;15.74;51.23;100647.72;5076491;28;1070;-52
2024/01/02 06:36:05;;;;;;;;;;;;;;;15.78;51.15;100652.66;5075770;28;1067;-51
2024/01/02 06:38:31;;;;;;;;;;;;;;;17.37;47.17;100640.69;5075993;28;1902;-53
2024/01/02 06:40:56;;;;;;;;;;;;;;;17.17;47.56;100653.41;5073093;28;1130;-49
2024/01/02 06:43:22;;;;;;;;;;;;;;;16.35;49.69;100657.09;5072981;28;1222;-53
2024/01/02 06:45:47;;;;;;;;;;;;;;;16.05;50.25;100655.19;5076244;28;1121;-55
2024/01/02 06:48:13;;;;;;;;;;;;;;;15.84;50.86;100665.31;5075970;28;1078;-55
2024/01/02 06:50:38;;;;;;;;;;;;;;;15.62;51.27;100666.31;5076458;28;1063;-53
2024/01/02 06:53:04;;;;;;;;;;;;;;;16.89;48.67;100666.69;5075003;28;1107;-55
2024/01/02 06:55:29;;;;;;;;;;;;;;;17.35;47.25;100670.38;5076383;28;1039;-54
2024/01/02 06:57:55;;;;;;;;;;;;;;;16.46;49.36;100676.34;5076271;28;1139;-52
2024/01/02 07:00:21;;;;;;;;;;;;;;;16.04;50.51;100676.28;5076043;28;1909;-50
2024/01/02 07:02:46;;;;;;;;;;;;;;;15.90;50.66;100669.72;5075848;28;1043;-55
2024/01/02 07:05:15;;;;;;;;;;;;;;;15.72;51.09;100677.31;5071761;28;1136;-49
2024/01/02 07:07:41;;;;;;;;;;;;;;;16.41;49.53;100679.88;5072569;28;1086;-53
2024/01/02 07:10:07;;;;;;;;;;;;;;;17.69;46.56;100675.19;5076343;28;1072;-54
2024/01/02 07:12:32;;;;;;;;;;;;;;;16.86;48.52;100682.88;5058082;28;1215;-51
2024/01/02 07:14:58;;;;;;;;;;;;;;;16.28;49.72;100680.44;5075709;28;1105;-54
2024/01/02 07:17:23;;;;;;;;;;;;;;;16.05;50.44;100675.22;5070308;28;1146;-52
2024/01/02 07:19:50;;;;;;;;;;;;;;;15.79;50.99;100684.47;5067265;28;1909;-54
2024/01/02 07:22:15;;;;;;;;;;;;;;;15.93;51.08;100691.09;5075306;28;1062;-52
2024/01/02 07:24:41;;;;;;;;;;;;;;;17.47;47.19;100686.56;5075814;28;1051;-54
2024/01/02 07:27:07;;;;;;;;;;;;;;;16.97;48.06;100690.03;5076055;28;1122;-55
2024/01/02 07:29:32;;;;;;;;;;;;;;;16.36;49.54;100682.66;5070060;28;1106;-55
2024/01/02 07:31:58;;;;;;;;;;;;;;;15.99;50.41;100683.69;5068493;28;1042;-55
2024/01/02 07:34:24;;;;;;;;;;;;;;;15.82;51.17;100683.94;5075810;28;1570;-55
2024/01/02 07:36:50;;;;;;;;;;;;;;;15.67;51.23;100682.78;5075591;28;1090;-55
2024/01/02 07:39:15;;;;;;;;;;;;;;;16.03;50.64;100680.16;5075914;28;1975;-55
2024/01/02 07:41:41;;;;;;;;;;;;;;;17.51;46.79;100671.16;5072672;28;1175;-53
2024/01/02 07:44:07;;;;;;;;;;;;;;;16.92;48.29;100681.78;5075861;28;1135;-55
2024/01/02 07:46:32;;;;;;;;;;;;;;;16.31;49.85;100685.38;5075545;28;1094;-55
2024/01/02 07:48:58;;;;;;;;;;;;;;;16.01;50.49;100682.34;5075388;28;1107;-54
2024/01/02 07:51:24;;;;;;;;;;;;;;;15.82;51.20;100694.91;5063201;28;1150;-54
2024/01/02 07:53:49;;;;;;;;;;;;;;;15.65;51.64;100695.91;5069036;28;1059;-54
2024/01/02 07:56:19;;;;;;;;;;;;;;;17.06;48.36;100684.78;5073187;28;1139;-53
2024/01/02 07:58:46;;;;;;;;;;;;;;;16.83;48.57;100683.41;5075651;28;1975;-52
2024/01/02 08:01:12;;;;;;;;;;;;;;;16.20;50.14;100688.13;5075532;28;1170;-53
2024/01/02 08:03:37;;;;;;;;;;;;;;;15.91;50.99;100687.81;5075656;28;1425;-52
2024/01/02 08:06:03;;;;;;;;;;;;;;;15.70;51.19;100682.25;5076132;28;1162;-56
2024/01/02 08:08:29;;;;;;;;;;;;;;;16.04;50.73;100683.72;5072575;28;1224;-54
2024/01/02 08:10:55;;;;;;;;;;;;;;;17.48;46.97;100686.28;5069014;28;1102;-50
2024/01/02 08:13:20;;;;;;;;;;;;;;;16.92;48.27;100699.09;5070748;28;1288;-54
2024/01/02 08:15:46;;;;;;;;;;;;;;;16.27;50.13;100696.09;5079280;28;1166;-54
2024/01/02 08:18:11;;;;;;;;;;;;;;;15.88;50.71;100702.88;5077651;28;1905;-56
2024/01/02 08:20:37;;;;;;;;;;;;;;;15.76;51.04;100710.50;5079239;28;1055;-53
2024/01/02 08:23:03;;;;;;;;;;;;;;;15.59;51.49;100707.16;5078420;28;1083;-55
2024/01/02 08:25:28;;;;;;;;;;;;;;;17.04;48.28;100703.44;5079156;28;1131;-51
2024/01/02 08:27:54;;;;;;;;;;;;;;;17.19;47.76;100710.84;5078798;28;1167;-55
2024/01/02 08:30:20;;;;;;;;;;;;;;;16.38;49.59;100708.72;5070242;28;1528;-54
2024/01/02 08:32:45;;;;;;;;;;;;;;;16.01;50.39;100719.91;5078415;28;1008;-54
2024/01/02 08:35:11;;;;;;;;;;;;;;;15.82;51.17;100722.31;5078600;28;1054;-55
2024/01/02 08:37:36;;;;;;;;;;;;;;;15.77;51.33;100727.75;5060922;28;1044;-55
2024/01/02 08:40:03;;;;;;;;;;;;;;;17.34;47.24;100724.53;5078689;28;1901;-54
2024/01/02 08:42:28;;;;;;;;;;;;;;;17.04;48.02;100720.78;5069589;28;1083;-55
2024/01/02 08:44:54;;;;;;;;;;;;;;;16.29;49.78;100743.28;5074700;28;1055;-55
2024/01/02 08:47:19;;;;;;;;;;;;;;;16.05;50.35;100732.81;5072281;28;1104;-55
2024/01/02 08:49:46;;;;;;;;;;;;;;;15.75;51.41;100733.50;5067441;28;1043;-54
2024/01/02 08:52:13;;;;;;;;;;;;;;;17.07;48.12;100735.88;5078512;28;1059;-57
2024/01/02 08:54:38;;;;;;;;;;;;;;;17.20;47.49;100728.97;5068566;28;1392;-54
2024/01/02 08:57:04;;;;;;;;;;;;;;;16.42;49.42;100723.53;5078685;28;1207;-59
2024/01/02 08:59:29;;;;;;;;;;;;;;;16.05;50.57;100732.00;5073402;28;1965;-54
2024/01/02 09:01:55;;;;;;;;;;;;;;;15.82;50.94;100734.13;5069921;28;1123;-54
2024/01/02 09:04:20;;;;;;;;;;;;;;;15.65;51.51;100723.34;5060495;28;1246;-55
2024/01/02 09:06:46;;;;;;;;;;;;;;;16.46;49.65;100723.00;5068059;28;1079;-56
2024/01/02 09:09:12;;;;;;;;;;;;;;;17.71;46.55;100716.97;5076202;28;1031;-56
2024/01/02 09:11:37;;;;;;;;;;;;;;;16.86;48.35;100719.41;5073324;28;1135;-56
2024/01/02 09:14:03;;;;;;;;;;;;;;;16.29;49.84;100721.31;5077870;28;1046;-54
2024/01/02 09:16:30;;;;;;;;;;;;;;;15.94;50.71;100724.84;5077548;28;1094;-56
2024/01/02 09:18:55;;;;;;;;;;;;;;;15.73;51.16;100722.00;5056839;28;1983;-55
2024/01/02 09:21:21;;;;;;;;;;;;;;;16.82;48.78;100714.75;5077974;28;1521;-54
2024/01/02 09:23:46;;;;;;;;;;;;;;;17.89;45.93;100710.00;5077599;28;966;-56
2024/01/02 09:26:13;;;;;;;;;;;;;;;16.76;48.67;100706.50;5078658;28;1135;-55
2024/01/02 09:28:39;;;;;;;;;;;;;;;16.28;49.87;100700.47;5046374;28;1009;-55
2024/01/02 09:31:04;;;;;;;;;;;;;;;16.04;50.64;100702.91;5059616;28;1219;-55
2024/01/02 09:33:30;;;;;;;;;;;;;;;15.82;51.21;100695.75;5075864;28;1138;-54
2024/01/02 09:35:55;;;;;;;;;;;;;;;15.65;51.37;100695.91;5062727;28;1379;-56
2024/01/02 09:38:21;;;;;;;;;;;;;;;16.60;49.35;100688.41;5069359;28;1911;-53
2024/01/02 09:40:59;;;;;;;;;;;;;;;17.76;46.37;100687.50;5077370;28;1215;-52
2024/01/02 09:43:33;;;;;;;;;;;;;;;16.76;48.62;100687.28;5062411;28;1123;-55
2024/01/02 09:46:05;;;;;;;;;;;;;;;16.30;49.78;100689.22;5052144;28;1059;-54
2024/01/02 09:48:49;;;;;;;;;;;;;;;15.96;50.73;100696.03;5077502;28;1015;-55
2024/01/02 09:51:23;;;;;;;;;;;;;;;15.70;51.47;100684.16;5077310;28;1055;-53
2024/01/02 09:53:59;;;;;;;;;;;;;;;15.64;51.40;100687.97;5077542;28;1159;-55
2024/01/02 09:56:37;;;;;;;;;;;;;;;17.14;47.80;100684.22;5059258;28;1534;-53
2024/01/02 09:59:06;;;;;;;;;;;;;;;17.42;47.01;100693.72;5070048;28;1894;-53
2024/01/02 10:01:31;;;;;;;;;;;;;;;16.48;49.58;100685.94;5070820;28;1224;-52
2024/01/02 10:04:02;;;;;;;;;;;;;;;16.07;50.51;100708.69;5077022;28;1012;-52
2024/01/02 10:06:46;;;;;;;;;;;;;;;15.88;51.11;100688.34;5056015;28;1017;-55
2024/01/02 10:09:29;;;;;;;;;;;;;;;15.69;51.24;100683.31;5064482;28;1091;-56
2024/01/02 10:12:15;;;;;;;;;;;;;;;17.03;48.14;100679.84;5075353;28;1139;-52
2024/01/02 10:14:56;;;;;;;;;;;;;;;17.64;46.54;100688.94;5076537;28;1191;-56
2024/01/02 10:17:37;;;;;;;;;;;;;;;16.62;48.91;100677.13;5077364;28;1039;-55
2024/01/02 10:20:03;;;;;;;;;;;;;;;16.13;50.23;100679.34;5058448;28;1953;-54
2024/01/02 10:22:31;;;;;;;;;;;;;;;15.86;50.99;100685.06;5076258;28;1001;-55
2024/01/02 10:25:06;;;;;;;;;;;;;;;15.67;51.22;100688.28;5058176;28;1107;-55
2024/01/02 10:27:37;;;;;;;;;;;;;;;15.73;51.37;100692.66;5075946;28;1055;-58
2024/01/02 10:30:06;;;;;;;;;;;;;;;17.37;47.39;100682.75;5076569;28;1234;-56
2024/01/02 10:32:48;;;;;;;;;;;;;;;17.15;47.61;100677.59;5071431;28;878;-56
2024/01/02 10:35:13;;;;;;;;;;;;;;;16.34;49.59;100674.69;5058245;28;1110;-55
2024/01/02 10:37:42;;;;;;;;;;;;;;;16.01;50.34;100681.53;5076636;28;1082;-55
2024/01/02 10:40:09;;;;;;;;;;;;;;;15.80;51.07;100675.19;5076545;28;1905;-55
2024/01/02 10:42:41;;;;;;;;;;;;;;;16.20;50.32;100670.81;5056458;28;1076;-56
2024/01/02 10:45:10;;;;;;;;;;;;;;;17.66;46.62;100671.06;5074161;28;1122;-54
2024/01/02 10:47:36;;;;;;;;;;;;;;;16.82;48.38;100670.81;5076777;28;1032;-56
2024/01/02 10:50:02;;;;;;;;;;;;;;;16.35;49.53;100665.34;5076197;28;1086;-55
2024/01/02 10:52:47;;;;;;;;;;;;;;;16.02;50.29;100655.72;5076329;28;1167;-55
2024/01/02 10:55:19;;;;;;;;;;;;;;;15.81;50.76;100654.88;5056873;28;1140;-54
2024/01/02 10:57:52;;;;;;;;;;;;;;;17.02;48.00;100639.75;5071303;28;1051;-56
2024/01/02 11:00:22;;;;;;;;;;;;;;;17.18;47.32;100637.75;5071555;28;1906;-55
2024/01/02 11:03:09;;;;;;;;;;;;;;;16.38;49.51;100642.84;5072453;28;1130;-55
2024/01/02 11:05:34;;;;;;;;;;;;;;;16.08;50.40;100644.50;5058643;28;1778;-56
2024/01/02 11:08:04;;;;;;;;;;;;;;;15.91;50.52;100639.25;5073161;28;1284;-57
2024/01/02 11:10:31;;;;;;;;;;;;;;;16.11;50.53;100639.56;5064867;28;1253;-55
2024/01/02 11:13:05;;;;;;;;;;;;;;;17.56;46.85;100638.13;5056982;28;1235;-56
2024/01/02 11:15:31;;;;;;;;;;;;;;;16.87;48.07;100637.81;5069385;28;1371;-57
2024/01/02 11:17:57;;;;;;;;;;;;;;;16.25;49.87;100637.91;5069241;28;1267;-55
2024/01/02 11:20:25;;;;;;;;;;;;;;;16.02;50.53;100629.13;5050312;28;1909;-54
2024/01/02 11:23:01;;;;;;;;;;;;;;;15.76;51.29;100624.69;5068917;28;1075;-56
2024/01/02 11:25:28;;;;;;;;;;;;;;;17.07;48.01;100615.81;5068782;28;1130;-55
2024/01/02 11:27:53;;;;;;;;;;;;;;;17.19;47.58;100612.72;5068297;28;1394;-55
2024/01/02 11:30:20;;;;;;;;;;;;;;;16.47;49.26;100612.13;5050052;28;1608;-55
2024/01/02 11:33:00;;;;;;;;;;;;;;;16.07;50.29;100620.06;5048568;28;1154;-55
2024/01/02 11:35:26;;;;;;;;;;;;;;;15.79;50.85;100614.03;5045236;28;1205;-56
2024/01/02 11:38:14;;;;;;;;;;;;;;;16.54;49.48;100616.22;5051908;28;1413;-55
2024/01/02 11:40:43;;;;;;;;;;;;;;;17.73;46.13;100613.00;5074903;28;1481;-58
2024/01/02 11:43:27;;;;;;;;;;;;;;;16.71;48.50;100602.16;5072350;28;1383;-56
2024/01/02 11:45:57;;;;;;;;;;;;;;;16.13;50.12;100596.22;5075414;28;1337;-55
2024/01/02 11:48:30;;;;;;;;;;;;;;;15.88;50.85;100600.63;5079992;28;1139;-56
2024/01/02 11:51:05;;;;;;;;;;;;;;;15.77;51.27;100586.03;5060588;28;1367;-60
2024/01/02 11:53:43;;;;;;;;;;;;;;;17.37;47.12;100592.03;5061450;28;1215;-60
2024/01/02 11:56:09;;;;;;;;;;;;;;;17.01;47.87;100594.97;5076019;28;1260;-57
2024/01/02 11:58:40;;;;;;;;;;;;;;;16.32;49.76;100583.56;5079460;28;1992;-57
2024/01/02 12:01:16;;;;;;;;;;;;;;;16.00;50.70;100581.13;5079426;28;1321;-55
2024/01/02 12:04:01;;;;;;;;;;;;;;;15.84;50.86;100583.88;5061076;28;1324;-55
2024/01/02 12:06:32;;;;;;;;;;;;;;;15.89;51.18;100577.56;5079338;28;1127;-55
2024/01/02 12:09:09;;;;;;;;;;;;;;;17.44;47.25;100575.25;5065796;28;1209;-54
2024/01/02 12:11:37;;;;;;;;;;;;;;;17.00;48.13;100573.25;5078444;28;1222;-56
2024/01/02 12:14:07;;;;;;;;;;;;;;;16.34;49.82;100584.13;5061171;28;1092;-56
2024/01/02 12:16:33;;;;;;;;;;;;;;;16.06;50.46;100580.88;5061390;28;1371;-55
2024/01/02 12:18:59;;;;;;;;;;;;;;;15.84;50.95;100591.28;5078902;28;1978;-60
2024/01/02 12:21:25;;;;;;;;;;;;;;;16.02;50.84;100592.63;5077280;28;1071;-59
2024/01/02 12:23:50;;;;;;;;;;;;;;;17.45;47.11;100594.19;5060799;28;1206;-57
2024/01/02 12:26:16;;;;;;;;;;;;;;;17.07;47.86;100593.03;5078943;28;1296;-57
2024/01/02 12:28:42;;;;;;;;;;;;;;;16.36;49.77;100598.41;5056293;28;1191;-55
2024/01/02 12:31:11;;;;;;;;;;;;;;;16.04;50.54;100598.69;5048477;28;1089;-56
2024/01/02 12:33:39;;;;;;;;;;;;;;;16.65;49.39;100599.72;5051829;28;1312;-51
2024/01/02 12:36:23;;;;;;;;;;;;;;;17.54;46.94;100597.16;5078453;28;1015;-55
2024/01/02 12:38:50;;;;;;;;;;;;;;;16.57;49.03;100603.84;5078675;28;1980;-50
2024/01/02 12:41:26;;;;;;;;;;;;;;;16.10;50.35;100602.25;5060940;28;1242;-54
2024/01/02 12:43:58;;;;;;;;;;;;;;;15.86;50.85;100606.34;5075667;28;1266;-56
2024/01/02 12:46:39;;;;;;;;;;;;;;;15.63;51.66;100610.41;5076611;28;1123;-56
2024/01/02 12:49:08;;;;;;;;;;;;;;;16.91;48.49;100604.06;5078444;28;1027;-56